sensor_id;sensor_type;location;lat;lon;timestamp;pressure;altitude;pressure_sealevel;temperature;humidity
81005;BME280;70472;47.592;17.640;2024-01-25T00:00:14;100300.69;;;7.85;72.89
81005;BME280;70472;47.592;17.640;2024-01-25T00:00:47;100308.16;;;7.81;73.35
81005;BME280;70472;47.592;17.640;2024-01-25T00:01:20;100299.03;;;7.84;72.53
81005;BME280;70472;47.592;17.640;2024-01-25T00:01:53;100301.13;;;7.90;72.77
81005;BME280;70472;47.592;17.640;2024-01-25T00:02:25;100306.16;;;7.93;72.65
81005;BME280;70472;47.592;17.640;2024-01-25T00:02:58;100308.66;;;7.94;72.32
81005;BME280;70472;47.592;17.640;2024-01-25T00:03:30;100298.13;;;7.93;72.87
81005;BME280;70472;47.592;17.640;2024-01-25T00:04:03;100299.88;;;7.84;72.44
81005;BME280;70472;47.592;17.640;2024-01-25T00:04:35;100299.03;;;7.84;72.87
81005;BME280;70472;47.592;17.640;2024-01-25T00:05:08;100295.50;;;7.83;72.70
81005;BME280;70472;47.592;17.640;2024-01-25T00:05:41;100302.38;;;7.76;73.29
81005;BME280;70472;47.592;17.640;2024-01-25T00:06:13;100299.88;;;7.74;72.65
81005;BME280;70472;47.592;17.640;2024-01-25T00:06:46;100303.13;;;7.68;72.76
81005;BME280;70472;47.592;17.640;2024-01-25T00:07:18;100305.78;;;7.68;73.02
81005;BME280;70472;47.592;17.640;2024-01-25T00:07:52;100298.19;;;7.64;72.98
81005;BME280;70472;47.592;17.640;2024-01-25T00:08:24;100302.28;;;7.58;73.55
81005;BME280;70472;47.592;17.640;2024-01-25T00:08:56;100303.56;;;7.44;73.27
81005;BME280;70472;47.592;17.640;2024-01-25T00:09:29;100303.31;;;7.47;73.58
81005;BME280;70472;47.592;17.640;2024-01-25T00:10:01;100305.81;;;7.49;73.66
81005;BME280;70472;47.592;17.640;2024-01-25T00:10:34;100289.09;;;7.47;73.50
81005;BME280;70472;47.592;17.640;2024-01-25T00:11:06;100285.03;;;7.33;73.30
81005;BME280;70472;47.592;17.640;2024-01-25T00:11:39;100294.19;;;7.31;74.04
81005;BME280;70472;47.592;17.640;2024-01-25T00:12:11;100304.72;;;7.32;73.56
81005;BME280;70472;47.592;17.640;2024-01-25T00:12:43;100290.94;;;7.27;73.94
81005;BME280;70472;47.592;17.640;2024-01-25T00:13:16;100289.25;;;7.26;73.90
81005;BME280;70472;47.592;17.640;2024-01-25T00:13:48;100290.41;;;7.23;73.77
81005;BME280;70472;47.592;17.640;2024-01-25T00:14:21;100296.28;;;7.27;74.11
81005;BME280;70472;47.592;17.640;2024-01-25T00:14:54;100286.16;;;7.21;74.25
81005;BME280;70472;47.592;17.640;2024-01-25T00:15:26;100285.75;;;7.16;74.62
81005;BME280;70472;47.592;17.640;2024-01-25T00:15:59;100279.88;;;7.12;74.71
81005;BME280;70472;47.592;17.640;2024-01-25T00:16:31;100279.72;;;7.14;74.54
81005;BME280;70472;47.592;17.640;2024-01-25T00:17:04;100284.06;;;7.15;74.71
81005;BME280;70472;47.592;17.640;2024-01-25T00:17:37;100288.56;;;7.14;74.74
81005;BME280;70472;47.592;17.640;2024-01-25T00:18:10;100283.06;;;7.16;74.58
81005;BME280;70472;47.592;17.640;2024-01-25T00:18:43;100287.44;;;7.17;74.86
81005;BME280;70472;47.592;17.640;2024-01-25T00:19:16;100271.72;;;7.14;74.69
81005;BME280;70472;47.592;17.640;2024-01-25T00:19:48;100275.22;;;7.05;74.93
81005;BME280;70472;47.592;17.640;2024-01-25T00:20:21;100275.09;;;7.06;74.70
81005;BME280;70472;47.592;17.640;2024-01-25T00:20:53;100282.66;;;7.11;74.63
81005;BME280;70472;47.592;17.640;2024-01-25T00:21:26;100284.22;;;7.13;74.89
81005;BME280;70472;47.592;17.640;2024-01-25T00:21:58;100279.97;;;7.11;74.80
81005;BME280;70472;47.592;17.640;2024-01-25T00:22:31;100282.94;;;7.08;74.89
81005;BME280;70472;47.592;17.640;2024-01-25T00:23:03;100284.34;;;7.02;75.12
81005;BME280;70472;47.592;17.640;2024-01-25T00:23:36;100274.09;;;6.97;75.13
81005;BME280;70472;47.592;17.640;2024-01-25T00:24:08;100275.22;;;6.95;75.01
81005;BME280;70472;47.592;17.640;2024-01-25T00:24:41;100275.66;;;7.00;74.65
81005;BME280;70472;47.592;17.640;2024-01-25T00:25:14;100285.06;;;6.94;74.88
81005;BME280;70472;47.592;17.640;2024-01-25T00:25:46;100283.22;;;6.95;75.52
81005;BME280;70472;47.592;17.640;2024-01-25T00:26:18;100279.28;;;6.89;74.77
81005;BME280;70472;47.592;17.640;2024-01-25T00:26:51;100285.19;;;6.83;75.17
81005;BME280;70472;47.592;17.640;2024-01-25T00:27:23;100280.84;;;6.82;75.53
81005;BME280;70472;47.592;17.640;2024-01-25T00:27:55;100283.19;;;6.76;74.78
81005;BME280;70472;47.592;17.640;2024-01-25T00:28:28;100282.22;;;6.77;75.08
81005;BME280;70472;47.592;17.640;2024-01-25T00:29:00;100269.00;;;6.65;74.79
81005;BME280;70472;47.592;17.640;2024-01-25T00:29:34;100275.56;;;6.52;74.99
81005;BME280;70472;47.592;17.640;2024-01-25T00:30:07;100280.63;;;6.55;75.78
81005;BME280;70472;47.592;17.640;2024-01-25T00:30:40;100276.56;;;6.60;75.95
81005;BME280;70472;47.592;17.640;2024-01-25T00:31:12;100284.97;;;6.56;75.91
81005;BME280;70472;47.592;17.640;2024-01-25T00:31:45;100287.38;;;6.59;76.05
81005;BME280;70472;47.592;17.640;2024-01-25T00:32:17;100284.72;;;6.59;76.31
81005;BME280;70472;47.592;17.640;2024-01-25T00:32:50;100284.53;;;6.51;76.18
81005;BME280;70472;47.592;17.640;2024-01-25T00:33:22;100283.84;;;6.49;75.77
81005;BME280;70472;47.592;17.640;2024-01-25T00:33:55;100288.28;;;6.38;76.57
81005;BME280;70472;47.592;17.640;2024-01-25T00:34:28;100283.50;;;6.32;76.21
81005;BME280;70472;47.592;17.640;2024-01-25T00:35:01;100276.44;;;6.12;76.22
81005;BME280;70472;47.592;17.640;2024-01-25T00:35:34;100281.22;;;6.18;77.06
81005;BME280;70472;47.592;17.640;2024-01-25T00:36:08;100282.63;;;6.22;76.73
81005;BME280;70472;47.592;17.640;2024-01-25T00:36:41;100290.81;;;6.30;76.82
81005;BME280;70472;47.592;17.640;2024-01-25T00:37:14;100287.00;;;6.33;77.11
81005;BME280;70472;47.592;17.640;2024-01-25T00:37:47;100291.25;;;6.35;77.27
81005;BME280;70472;47.592;17.640;2024-01-25T00:38:22;100288.69;;;6.34;76.74
81005;BME280;70472;47.592;17.640;2024-01-25T00:38:55;100288.97;;;6.31;77.68
81005;BME280;70472;47.592;17.640;2024-01-25T00:39:28;100303.13;;;6.31;77.45
81005;BME280;70472;47.592;17.640;2024-01-25T00:40:00;100300.06;;;6.36;77.13
81005;BME280;70472;47.592;17.640;2024-01-25T00:40:33;100305.66;;;6.33;76.76
81005;BME280;70472;47.592;17.640;2024-01-25T00:41:09;100311.00;;;6.33;77.31
81005;BME280;70472;47.592;17.640;2024-01-25T00:41:44;100303.94;;;6.22;76.90
81005;BME280;70472;47.592;17.640;2024-01-25T00:42:22;100300.41;;;6.12;76.56
81005;BME280;70472;47.592;17.640;2024-01-25T00:42:55;100303.75;;;6.14;77.08
81005;BME280;70472;47.592;17.640;2024-01-25T00:43:28;100305.84;;;6.10;77.08
81005;BME280;70472;47.592;17.640;2024-01-25T00:44:01;100305.00;;;6.10;76.96
81005;BME280;70472;47.592;17.640;2024-01-25T00:44:34;100311.13;;;6.01;76.68
81005;BME280;70472;47.592;17.640;2024-01-25T00:45:07;100312.81;;;6.02;76.20
81005;BME280;70472;47.592;17.640;2024-01-25T00:45:41;100310.31;;;6.00;76.72
81005;BME280;70472;47.592;17.640;2024-01-25T00:46:14;100304.38;;;5.97;77.46
81005;BME280;70472;47.592;17.640;2024-01-25T00:46:47;100290.28;;;5.85;76.52
81005;BME280;70472;47.592;17.640;2024-01-25T00:47:20;100302.94;;;5.93;76.99
81005;BME280;70472;47.592;17.640;2024-01-25T00:47:53;100296.97;;;6.00;77.28
81005;BME280;70472;47.592;17.640;2024-01-25T00:48:26;100299.94;;;6.07;77.06
81005;BME280;70472;47.592;17.640;2024-01-25T00:48:59;100291.16;;;6.16;77.44
81005;BME280;70472;47.592;17.640;2024-01-25T00:49:32;100295.78;;;6.14;77.28
81005;BME280;70472;47.592;17.640;2024-01-25T00:50:05;100299.66;;;6.10;76.99
81005;BME280;70472;47.592;17.640;2024-01-25T00:50:40;100302.09;;;6.13;77.45
81005;BME280;70472;47.592;17.640;2024-01-25T00:51:15;100304.47;;;6.16;77.09
81005;BME280;70472;47.592;17.640;2024-01-25T00:51:59;100305.44;;;6.15;77.26
81005;BME280;70472;47.592;17.640;2024-01-25T00:52:32;100304.47;;;6.16;77.14
81005;BME280;70472;47.592;17.640;2024-01-25T00:53:05;100302.22;;;6.11;76.55
81005;BME280;70472;47.592;17.640;2024-01-25T00:53:38;100299.41;;;6.13;76.47
81005;BME280;70472;47.592;17.640;2024-01-25T00:54:11;100295.31;;;6.09;76.58
81005;BME280;70472;47.592;17.640;2024-01-25T00:54:43;100299.38;;;6.03;77.27
81005;BME280;70472;47.592;17.640;2024-01-25T00:55:16;100294.56;;;5.97;77.20
81005;BME280;70472;47.592;17.640;2024-01-25T00:55:50;100299.91;;;5.97;77.14
81005;BME280;70472;47.592;17.640;2024-01-25T00:56:22;100303.59;;;6.06;77.16
81005;BME280;70472;47.592;17.640;2024-01-25T00:56:55;100303.59;;;6.06;77.28
81005;BME280;70472;47.592;17.640;2024-01-25T00:57:28;100300.09;;;6.05;77.72
81005;BME280;70472;47.592;17.640;2024-01-25T00:58:01;100308.78;;;6.07;77.58
81005;BME280;70472;47.592;17.640;2024-01-25T00:58:34;100295.06;;;6.12;77.68
81005;BME280;70472;47.592;17.640;2024-01-25T00:59:07;100289.75;;;6.12;77.54
81005;BME280;70472;47.592;17.640;2024-01-25T00:59:39;100294.94;;;6.13;76.76
81005;BME280;70472;47.592;17.640;2024-01-25T01:00:13;100297.91;;;6.20;77.17
81005;BME280;70472;47.592;17.640;2024-01-25T01:00:46;100297.38;;;6.26;76.64
81005;BME280;70472;47.592;17.640;2024-01-25T01:01:21;100306.69;;;6.41;75.62
81005;BME280;70472;47.592;17.640;2024-01-25T01:01:58;100304.38;;;6.27;75.92
81005;BME280;70472;47.592;17.640;2024-01-25T01:02:36;100302.22;;;6.11;76.75
81005;BME280;70472;47.592;17.640;2024-01-25T01:03:12;100301.63;;;6.08;76.68
81005;BME280;70472;47.592;17.640;2024-01-25T01:03:46;100306.38;;;6.04;76.89
81005;BME280;70472;47.592;17.640;2024-01-25T01:04:19;100306.13;;;6.07;77.53
81005;BME280;70472;47.592;17.640;2024-01-25T01:04:52;100306.81;;;6.09;77.05
81005;BME280;70472;47.592;17.640;2024-01-25T01:05:26;100303.59;;;6.06;77.63
81005;BME280;70472;47.592;17.640;2024-01-25T01:05:59;100305.81;;;6.01;77.30
81005;BME280;70472;47.592;17.640;2024-01-25T01:06:32;100301.72;;;5.97;76.69
81005;BME280;70472;47.592;17.640;2024-01-25T01:07:06;100307.03;;;5.97;77.59
81005;BME280;70472;47.592;17.640;2024-01-25T01:07:40;100307.31;;;5.94;77.44
81005;BME280;70472;47.592;17.640;2024-01-25T01:08:12;100302.22;;;5.90;77.64
81005;BME280;70472;47.592;17.640;2024-01-25T01:08:45;100306.53;;;5.82;76.67
81005;BME280;70472;47.592;17.640;2024-01-25T01:09:18;100303.88;;;5.82;77.54
81005;BME280;70472;47.592;17.640;2024-01-25T01:09:50;100306.38;;;5.83;77.03
81005;BME280;70472;47.592;17.640;2024-01-25T01:10:23;100306.78;;;5.79;78.04
81005;BME280;70472;47.592;17.640;2024-01-25T01:10:55;100299.63;;;5.79;77.55
81005;BME280;70472;47.592;17.640;2024-01-25T01:11:28;100300.38;;;5.81;77.75
81005;BME280;70472;47.592;17.640;2024-01-25T01:12:00;100301.53;;;5.88;77.67
81005;BME280;70472;47.592;17.640;2024-01-25T01:12:33;100305.16;;;5.87;77.44
81005;BME280;70472;47.592;17.640;2024-01-25T01:13:05;100299.00;;;5.87;77.71
81005;BME280;70472;47.592;17.640;2024-01-25T01:13:38;100302.75;;;5.84;77.27
81005;BME280;70472;47.592;17.640;2024-01-25T01:14:11;100307.81;;;5.87;77.64
81005;BME280;70472;47.592;17.640;2024-01-25T01:14:44;100309.75;;;5.85;77.47
81005;BME280;70472;47.592;17.640;2024-01-25T01:15:16;100303.59;;;5.85;77.72
81005;BME280;70472;47.592;17.640;2024-01-25T01:15:49;100303.03;;;5.81;77.84
81005;BME280;70472;47.592;17.640;2024-01-25T01:16:21;100299.84;;;5.87;77.56
81005;BME280;70472;47.592;17.640;2024-01-25T01:16:54;100304.44;;;5.85;77.75
81005;BME280;70472;47.592;17.640;2024-01-25T01:17:26;100300.69;;;5.88;77.43
81005;BME280;70472;47.592;17.640;2024-01-25T01:17:58;100309.25;;;5.92;77.80
81005;BME280;70472;47.592;17.640;2024-01-25T01:18:31;100303.81;;;5.93;77.11
81005;BME280;70472;47.592;17.640;2024-01-25T01:19:04;100301.28;;;5.92;77.60
81005;BME280;70472;47.592;17.640;2024-01-25T01:19:36;100305.03;;;5.89;77.44
81005;BME280;70472;47.592;17.640;2024-01-25T01:20:10;100304.44;;;5.85;77.44
81005;BME280;70472;47.592;17.640;2024-01-25T01:20:43;100308.22;;;5.83;77.74
81005;BME280;70472;47.592;17.640;2024-01-25T01:21:15;100304.44;;;5.85;77.39
81005;BME280;70472;47.592;17.640;2024-01-25T01:21:48;100305.50;;;5.94;77.18
81005;BME280;70472;47.592;17.640;2024-01-25T01:22:20;100314.06;;;5.98;77.07
81005;BME280;70472;47.592;17.640;2024-01-25T01:22:53;100303.84;;;6.03;77.79
81005;BME280;70472;47.592;17.640;2024-01-25T01:23:25;100310.84;;;6.04;77.74
81005;BME280;70472;47.592;17.640;2024-01-25T01:23:58;100315.94;;;6.07;77.21
81005;BME280;70472;47.592;17.640;2024-01-25T01:24:30;100315.97;;;6.16;76.64
81005;BME280;70472;47.592;17.640;2024-01-25T01:25:03;100313.19;;;6.18;76.72
81005;BME280;70472;47.592;17.640;2024-01-25T01:25:35;100312.28;;;6.08;76.57
81005;BME280;70472;47.592;17.640;2024-01-25T01:26:08;100313.66;;;6.02;77.83
81005;BME280;70472;47.592;17.640;2024-01-25T01:26:40;100311.00;;;6.02;77.66
81005;BME280;70472;47.592;17.640;2024-01-25T01:27:12;100302.69;;;5.96;77.01
81005;BME280;70472;47.592;17.640;2024-01-25T01:27:45;100313.41;;;5.84;77.46
81005;BME280;70472;47.592;17.640;2024-01-25T01:28:17;100313.84;;;5.89;76.99
81005;BME280;70472;47.592;17.640;2024-01-25T01:28:49;100314.69;;;5.90;77.15
81005;BME280;70472;47.592;17.640;2024-01-25T01:29:23;100310.00;;;5.94;76.71
81005;BME280;70472;47.592;17.640;2024-01-25T01:29:55;100306.84;;;5.88;77.24
81005;BME280;70472;47.592;17.640;2024-01-25T01:30:27;100304.44;;;5.85;77.25
81005;BME280;70472;47.592;17.640;2024-01-25T01:31:00;100307.94;;;5.86;77.09
81005;BME280;70472;47.592;17.640;2024-01-25T01:31:32;100303.72;;;5.83;77.44
81005;BME280;70472;47.592;17.640;2024-01-25T01:32:05;100308.78;;;5.86;77.29
81005;BME280;70472;47.592;17.640;2024-01-25T01:32:37;100304.44;;;5.85;77.23
81005;BME280;70472;47.592;17.640;2024-01-25T01:33:10;100302.56;;;5.76;77.19
81005;BME280;70472;47.592;17.640;2024-01-25T01:33:42;100297.94;;;5.78;77.55
81005;BME280;70472;47.592;17.640;2024-01-25T01:34:15;100301.00;;;5.74;77.47
81005;BME280;70472;47.592;17.640;2024-01-25T01:34:47;100299.84;;;5.87;77.38
81005;BME280;70472;47.592;17.640;2024-01-25T01:35:19;100299.72;;;6.20;77.13
81005;BME280;70472;47.592;17.640;2024-01-25T01:35:52;100305.50;;;6.25;76.61
81005;BME280;70472;47.592;17.640;2024-01-25T01:36:24;100292.13;;;6.15;76.89
81005;BME280;70472;47.592;17.640;2024-01-25T01:36:57;100294.25;;;6.11;76.99
81005;BME280;70472;47.592;17.640;2024-01-25T01:37:29;100303.19;;;6.10;77.24
81005;BME280;70472;47.592;17.640;2024-01-25T01:38:02;100296.91;;;6.11;76.97
81005;BME280;70472;47.592;17.640;2024-01-25T01:38:34;100288.91;;;6.11;77.03
81005;BME280;70472;47.592;17.640;2024-01-25T01:39:07;100289.59;;;6.13;77.39
81005;BME280;70472;47.592;17.640;2024-01-25T01:39:39;100304.75;;;6.13;76.84
81005;BME280;70472;47.592;17.640;2024-01-25T01:40:12;100297.75;;;6.12;77.01
81005;BME280;70472;47.592;17.640;2024-01-25T01:40:45;100296.31;;;6.08;77.20
81005;BME280;70472;47.592;17.640;2024-01-25T01:41:17;100289.31;;;6.07;76.72
81005;BME280;70472;47.592;17.640;2024-01-25T01:41:50;100286.72;;;5.96;76.97
81005;BME280;70472;47.592;17.640;2024-01-25T01:42:22;100284.75;;;5.98;76.43
81005;BME280;70472;47.592;17.640;2024-01-25T01:43:02;100287.19;;;6.01;76.88
81005;BME280;70472;47.592;17.640;2024-01-25T01:43:34;100299.13;;;6.06;77.04
81005;BME280;70472;47.592;17.640;2024-01-25T01:44:07;100292.81;;;6.07;76.85
81005;BME280;70472;47.592;17.640;2024-01-25T01:44:39;100290.31;;;6.15;76.15
81005;BME280;70472;47.592;17.640;2024-01-25T01:45:12;100289.59;;;6.13;77.02
81005;BME280;70472;47.592;17.640;2024-01-25T01:45:45;100289.47;;;6.15;76.72
81005;BME280;70472;47.592;17.640;2024-01-25T01:46:37;100285.81;;;6.16;77.03
81005;BME280;70472;47.592;17.640;2024-01-25T01:47:11;100295.69;;;6.25;76.51
81005;BME280;70472;47.592;17.640;2024-01-25T01:47:44;100294.44;;;6.29;76.72
81005;BME280;70472;47.592;17.640;2024-01-25T01:48:17;100295.28;;;6.30;76.63
81005;BME280;70472;47.592;17.640;2024-01-25T01:48:49;100284.94;;;6.36;76.02
81005;BME280;70472;47.592;17.640;2024-01-25T01:49:22;100282.16;;;6.48;76.13
81005;BME280;70472;47.592;17.640;2024-01-25T01:49:55;100287.78;;;6.54;75.60
81005;BME280;70472;47.592;17.640;2024-01-25T01:50:29;100292.00;;;6.57;75.07
81005;BME280;70472;47.592;17.640;2024-01-25T01:51:02;100293.97;;;6.55;76.01
81005;BME280;70472;47.592;17.640;2024-01-25T01:51:34;100292.00;;;6.57;75.51
81005;BME280;70472;47.592;17.640;2024-01-25T01:52:08;100290.72;;;6.51;75.40
81005;BME280;70472;47.592;17.640;2024-01-25T01:52:41;100292.97;;;6.56;75.49
81005;BME280;70472;47.592;17.640;2024-01-25T01:53:15;100293.41;;;6.61;75.13
81005;BME280;70472;47.592;17.640;2024-01-25T01:53:49;100290.06;;;6.59;75.33
81005;BME280;70472;47.592;17.640;2024-01-25T01:54:23;100283.59;;;6.61;75.55
81005;BME280;70472;47.592;17.640;2024-01-25T01:54:57;100286.09;;;6.63;75.03
81005;BME280;70472;47.592;17.640;2024-01-25T01:55:31;100284.88;;;6.67;76.01
81005;BME280;70472;47.592;17.640;2024-01-25T01:56:05;100282.91;;;6.69;75.81
81005;BME280;70472;47.592;17.640;2024-01-25T01:56:44;100292.72;;;6.68;76.11
81005;BME280;70472;47.592;17.640;2024-01-25T01:57:24;100287.13;;;6.72;75.30
81005;BME280;70472;47.592;17.640;2024-01-25T01:58:01;100291.50;;;6.82;75.17
81005;BME280;70472;47.592;17.640;2024-01-25T01:58:38;100289.38;;;6.76;75.13
81005;BME280;70472;47.592;17.640;2024-01-25T01:59:12;100292.31;;;6.73;74.56
81005;BME280;70472;47.592;17.640;2024-01-25T01:59:48;100280.09;;;6.61;74.61
81005;BME280;70472;47.592;17.640;2024-01-25T02:00:20;100288.91;;;6.61;74.84
81005;BME280;70472;47.592;17.640;2024-01-25T02:00:53;100286.00;;;6.64;74.71
81005;BME280;70472;47.592;17.640;2024-01-25T02:01:28;100291.00;;;6.58;74.33
81005;BME280;70472;47.592;17.640;2024-01-25T02:02:00;100290.31;;;6.56;75.14
81005;BME280;70472;47.592;17.640;2024-01-25T02:02:33;100281.88;;;6.51;74.58
81005;BME280;70472;47.592;17.640;2024-01-25T02:03:06;100292.38;;;6.42;75.38
81005;BME280;70472;47.592;17.640;2024-01-25T02:03:39;100280.63;;;6.55;75.58
81005;BME280;70472;47.592;17.640;2024-01-25T02:04:12;100280.22;;;6.59;74.64
81005;BME280;70472;47.592;17.640;2024-01-25T02:04:44;100287.28;;;6.70;74.80
81005;BME280;70472;47.592;17.640;2024-01-25T02:05:17;100286.41;;;6.69;74.85
81005;BME280;70472;47.592;17.640;2024-01-25T02:05:49;100276.88;;;6.67;74.44
81005;BME280;70472;47.592;17.640;2024-01-25T02:06:24;100283.72;;;6.60;74.33
81005;BME280;70472;47.592;17.640;2024-01-25T02:06:57;100278.41;;;6.60;74.48
81005;BME280;70472;47.592;17.640;2024-01-25T02:07:30;100279.38;;;6.59;74.60
81005;BME280;70472;47.592;17.640;2024-01-25T02:08:05;100283.31;;;6.64;74.89
81005;BME280;70472;47.592;17.640;2024-01-25T02:08:38;100280.94;;;6.71;74.49
81005;BME280;70472;47.592;17.640;2024-01-25T02:09:11;100277.19;;;6.83;74.24
81005;BME280;70472;47.592;17.640;2024-01-25T02:09:44;100281.22;;;6.87;73.96
81005;BME280;70472;47.592;17.640;2024-01-25T02:10:16;100280.81;;;6.92;73.80
81005;BME280;70472;47.592;17.640;2024-01-25T02:10:49;100276.03;;;6.86;73.97
81005;BME280;70472;47.592;17.640;2024-01-25T02:11:21;100279.13;;;6.81;73.66
81005;BME280;70472;47.592;17.640;2024-01-25T02:12:01;100283.91;;;6.78;74.78
81005;BME280;70472;47.592;17.640;2024-01-25T02:12:36;100278.84;;;6.75;73.83
81005;BME280;70472;47.592;17.640;2024-01-25T02:13:08;100279.66;;;6.75;74.40
81005;BME280;70472;47.592;17.640;2024-01-25T02:13:41;100272.66;;;6.74;74.06
81005;BME280;70472;47.592;17.640;2024-01-25T02:14:13;100278.44;;;6.79;74.40
81005;BME280;70472;47.592;17.640;2024-01-25T02:14:46;100269.88;;;6.85;73.88
81005;BME280;70472;47.592;17.640;2024-01-25T02:15:18;100269.34;;;7.01;73.59
81005;BME280;70472;47.592;17.640;2024-01-25T02:15:51;100277.47;;;7.09;73.62
81005;BME280;70472;47.592;17.640;2024-01-25T02:16:23;100273.69;;;7.12;73.07
81005;BME280;70472;47.592;17.640;2024-01-25T02:16:56;100265.81;;;7.20;73.07
81005;BME280;70472;47.592;17.640;2024-01-25T02:17:29;100271.84;;;7.22;72.55
81005;BME280;70472;47.592;17.640;2024-01-25T02:18:03;100258.66;;;7.20;72.57
81005;BME280;70472;47.592;17.640;2024-01-25T02:18:36;100270.31;;;7.19;72.39
81005;BME280;70472;47.592;17.640;2024-01-25T02:19:08;100276.91;;;7.25;72.59
81005;BME280;70472;47.592;17.640;2024-01-25T02:19:41;100272.25;;;7.27;72.78
81005;BME280;70472;47.592;17.640;2024-01-25T02:20:13;100276.75;;;7.36;71.99
81005;BME280;70472;47.592;17.640;2024-01-25T02:20:46;100279.00;;;7.31;72.40
81005;BME280;70472;47.592;17.640;2024-01-25T02:21:18;100268.75;;;7.27;72.48
81005;BME280;70472;47.592;17.640;2024-01-25T02:21:54;100264.41;;;7.26;72.30
81005;BME280;70472;47.592;17.640;2024-01-25T02:22:29;100270.59;;;7.26;72.58
81005;BME280;70472;47.592;17.640;2024-01-25T02:23:02;100265.25;;;7.26;72.54
81005;BME280;70472;47.592;17.640;2024-01-25T02:23:34;100267.63;;;7.29;72.07
81005;BME280;70472;47.592;17.640;2024-01-25T02:24:07;100271.56;;;7.25;72.05
81005;BME280;70472;47.592;17.640;2024-01-25T02:24:39;100270.16;;;7.21;72.56
81005;BME280;70472;47.592;17.640;2024-01-25T02:25:12;100266.25;;;7.25;72.33
81005;BME280;70472;47.592;17.640;2024-01-25T02:25:44;100257.66;;;7.31;72.34
81005;BME280;70472;47.592;17.640;2024-01-25T02:26:17;100262.28;;;7.29;71.71
81005;BME280;70472;47.592;17.640;2024-01-25T02:26:49;100264.00;;;7.30;72.17
81005;BME280;70472;47.592;17.640;2024-01-25T02:27:22;100262.00;;;7.32;72.32
81005;BME280;70472;47.592;17.640;2024-01-25T02:27:54;100263.13;;;7.39;72.06
81005;BME280;70472;47.592;17.640;2024-01-25T02:28:27;100264.81;;;7.40;71.65
81005;BME280;70472;47.592;17.640;2024-01-25T02:28:59;100262.44;;;7.37;71.80
81005;BME280;70472;47.592;17.640;2024-01-25T02:29:31;100257.94;;;7.28;72.18
81005;BME280;70472;47.592;17.640;2024-01-25T02:30:06;100251.59;;;7.29;71.63
81005;BME280;70472;47.592;17.640;2024-01-25T02:30:39;100253.00;;;7.33;72.31
81005;BME280;70472;47.592;17.640;2024-01-25T02:31:11;100263.41;;;7.36;71.60
81005;BME280;70472;47.592;17.640;2024-01-25T02:31:43;100258.78;;;7.38;71.49
81005;BME280;70472;47.592;17.640;2024-01-25T02:32:16;100252.03;;;7.44;71.61
81005;BME280;70472;47.592;17.640;2024-01-25T02:32:49;100243.59;;;7.48;71.29
81005;BME280;70472;47.592;17.640;2024-01-25T02:33:21;100246.25;;;7.48;71.66
81005;BME280;70472;47.592;17.640;2024-01-25T02:33:54;100251.59;;;7.48;71.27
81005;BME280;70472;47.592;17.640;2024-01-25T02:34:26;100250.19;;;7.44;71.33
81005;BME280;70472;47.592;17.640;2024-01-25T02:34:59;100248.38;;;7.45;71.69
81005;BME280;70472;47.592;17.640;2024-01-25T02:35:33;100248.09;;;7.38;71.54
81005;BME280;70472;47.592;17.640;2024-01-25T02:36:06;100244.00;;;7.44;71.78
81005;BME280;70472;47.592;17.640;2024-01-25T02:36:38;100252.59;;;7.47;71.35
81005;BME280;70472;47.592;17.640;2024-01-25T02:37:11;100251.59;;;7.48;70.89
81005;BME280;70472;47.592;17.640;2024-01-25T02:37:43;100261.97;;;7.61;70.39
81005;BME280;70472;47.592;17.640;2024-01-25T02:38:16;100253.84;;;7.53;70.52
81005;BME280;70472;47.592;17.640;2024-01-25T02:38:48;100254.97;;;7.50;70.52
81005;BME280;70472;47.592;17.640;2024-01-25T02:39:20;100248.94;;;7.48;71.35
81005;BME280;70472;47.592;17.640;2024-01-25T02:39:53;100252.00;;;7.54;70.98
81005;BME280;70472;47.592;17.640;2024-01-25T02:40:26;100247.06;;;7.59;70.91
81005;BME280;70472;47.592;17.640;2024-01-25T02:40:58;100243.44;;;7.60;70.52
81005;BME280;70472;47.592;17.640;2024-01-25T02:41:32;100254.38;;;7.57;71.21
81005;BME280;70472;47.592;17.640;2024-01-25T02:42:04;100245.94;;;7.61;70.86
81005;BME280;70472;47.592;17.640;2024-01-25T02:42:37;100252.69;;;7.65;70.98
81005;BME280;70472;47.592;17.640;2024-01-25T02:43:09;100255.75;;;7.70;70.65
81005;BME280;70472;47.592;17.640;2024-01-25T02:43:42;100252.38;;;7.68;70.25
81005;BME280;70472;47.592;17.640;2024-01-25T02:44:15;100254.91;;;7.70;70.03
81005;BME280;70472;47.592;17.640;2024-01-25T02:44:48;100249.16;;;7.65;70.49
81005;BME280;70472;47.592;17.640;2024-01-25T02:45:20;100252.38;;;7.68;70.18
81005;BME280;70472;47.592;17.640;2024-01-25T02:45:53;100256.88;;;7.68;70.15
81005;BME280;70472;47.592;17.640;2024-01-25T02:46:25;100248.59;;;7.71;70.56
81005;BME280;70472;47.592;17.640;2024-01-25T02:46:58;100255.91;;;7.69;70.42
81005;BME280;70472;47.592;17.640;2024-01-25T02:47:30;100242.53;;;7.69;70.69
81005;BME280;70472;47.592;17.640;2024-01-25T02:48:03;100244.69;;;7.65;70.28
81005;BME280;70472;47.592;17.640;2024-01-25T02:48:36;100252.13;;;7.62;70.78
81005;BME280;70472;47.592;17.640;2024-01-25T02:49:08;100248.47;;;7.63;69.85
81005;BME280;70472;47.592;17.640;2024-01-25T02:49:41;100246.78;;;7.62;70.42
81005;BME280;70472;47.592;17.640;2024-01-25T02:50:14;100243.97;;;7.63;70.39
81005;BME280;70472;47.592;17.640;2024-01-25T02:50:46;100250.03;;;7.65;70.34
81005;BME280;70472;47.592;17.640;2024-01-25T02:51:19;100246.06;;;7.69;70.25
81005;BME280;70472;47.592;17.640;2024-01-25T02:51:51;100253.53;;;7.66;70.50
81005;BME280;70472;47.592;17.640;2024-01-25T02:52:24;100249.28;;;7.73;69.98
81005;BME280;70472;47.592;17.640;2024-01-25T02:53:01;100249.44;;;7.71;69.30